Airfield :
LOGIN :

Register | Disclaimer

   EN    FR    IT 

 










Legend :    VFR   Marginal VFR   IFR   Intensive IFR   Very Intensive IFR
Visi :
Ceiling :
>= 8 km
>= 3000ft
5 to 8 km
1000 to 3000 ft
1500m to 5 km
500 to 1000 ft
800 to 1500m
200 to 500 ft
< 800m
< 200 ft
Symbols :   Thunderstorms  Fog  Heavy snow  Heavy precipitations  Wind > 20 kt
SIGMETs :     Misc.  Thunderstorms  Icing  Turbulence  Mountain Waves  Volcanic Ashes






- Airport Elevation : 32 ft
- IATA code : LKZ


EGUL - RAF Lakenheath

CURRENT METAR :
  • 101556Z AUTO 29010KT 9999 FEW020 SCT042 18/06 A3007 RMK AO2 DZB29E33RAB33E46DZB46E48 SLP186 P0000 T01760055 $

EXPIRED METARs :
  • 101548Z AUTO 27006KT 9999 FEW020 16/07 A3006 RMK AO2 DZB29E33RAB33E46DZB46E48 SLP183 $
  • 101529Z AUTO 30009G16KT 9999 -DZ SCT040 SCT049 17/05 A3007 RMK AO2 DZB29 SLP186 $
  • 101456Z AUTO 31010KT 9999 FEW037 FEW045 17/04 A3006 RMK AO2 SLP183 T01720042 52012 $
  • 101356Z AUTO 28010KT 9999 FEW033 SCT070 SCT085 18/05 A3004 RMK AO2 SLP176 T01780050 $

TAF AMD TAF EGUL
Valid from the 10 at 14:00 until the 11 at 20:00 UTC


101420Z 1014/1120 29012KT 9999 BKN060 QNH3004INS
TEMPO 1014/1016 8000 -SHRA VCTS BKN030CB
BECMG 1023/1024 28006KT 8000 BR SCT060 QNH3018INS
BECMG 1105/1106 31012KT 9999 NSW BKN035 QNH3024INS TX20/1114Z TN10/1106Z LAST NO AMDS AFT 1016 NEXT 1306



MET'MAP, your aeronautical weather chart ! - Copyright ORBIFLY December 2007 - Disclaimer

ORBIFLY MET'MAP TEAM :

Programming & Development : Alexandra Zaïnal
Concept & original design : Baudouin d'Aumeries
Assistance for programming : Marc-Olivier Méhu
Technical & hardware support : Manuel Goepfert

Contact : metmap@orbifly.com




SOURCES & CREDITS :

   NOAA